WWA3311 KFLL-KTPA
Flight info
| Callsign | WWA3311 |
|---|---|
| Flight time | 0h 42m |
| Altitude | 20000 |
| Route | BNICE2 COREA BLFRG3 |
| Aircraft | E55P/M-SBDFGHJ2RWY/LB2 |
Departure
| Time | 2026-05-04 13:11 |
|---|---|
| Airport | Fort Lauderdale Hollywood International Airport (KFLL) |
Arrival
| Time | 2026-05-04 13:53 |
|---|---|
| Airport | Tampa International Airport (KTPA) |
| Time | Latitude | Longitude | Altitude | Speed | Heading |
|---|---|---|---|---|---|
| 2026-05-04 12:58 | 26.07932 | -80.15316 | 7 ft | 0 kts | 1° |
| 2026-05-04 13:08 | 26.07934 | -80.15316 | 7 ft | 1 kts | 1° |
| 2026-05-04 13:08 | 26.07946 | -80.15336 | 7 ft | 6 kts | 239° |
| 2026-05-04 13:08 | 26.07890 | -80.15373 | 7 ft | 12 kts | 165° |
| 2026-05-04 13:09 | 26.07807 | -80.15426 | 7 ft | 18 kts | 279° |
| 2026-05-04 13:09 | 26.07813 | -80.15599 | 7 ft | 24 kts | 270° |
| 2026-05-04 13:09 | 26.07818 | -80.15810 | 7 ft | 29 kts | 274° |
| 2026-05-04 13:09 | 26.07814 | -80.16067 | 7 ft | 34 kts | 269° |
| 2026-05-04 13:10 | 26.07812 | -80.16370 | 7 ft | 37 kts | 262° |
| 2026-05-04 13:10 | 26.07809 | -80.16569 | 7 ft | 16 kts | 264° |
| 2026-05-04 13:10 | 26.07751 | -80.16625 | 7 ft | 12 kts | 179° |
| 2026-05-04 13:10 | 26.07697 | -80.16560 | 7 ft | 14 kts | 90° |
| 2026-05-04 13:11 | 26.07698 | -80.16236 | 7 ft | 82 kts | 90° |
| 2026-05-04 13:11 | 26.07685 | -80.15288 | 148 ft | 137 kts | 92° |
| 2026-05-04 13:11 | 26.07597 | -80.14170 | 909 ft | 143 kts | 94° |
| 2026-05-04 13:11 | 26.07629 | -80.13036 | 1649 ft | 152 kts | 74° |
| 2026-05-04 13:12 | 26.07929 | -80.11861 | 2488 ft | 162 kts | 72° |
| 2026-05-04 13:12 | 26.08187 | -80.10563 | 3430 ft | 169 kts | 79° |
| 2026-05-04 13:12 | 26.08359 | -80.09288 | 4300 ft | 175 kts | 79° |
| 2026-05-04 13:12 | 26.08689 | -80.07943 | 5163 ft | 184 kts | 64° |
| 2026-05-04 13:13 | 26.09553 | -80.06594 | 5947 ft | 198 kts | 39° |
| 2026-05-04 13:13 | 26.10797 | -80.05699 | 6707 ft | 207 kts | 20° |
| 2026-05-04 13:13 | 26.12142 | -80.05282 | 7307 ft | 218 kts | 4° |
| 2026-05-04 13:13 | 26.13812 | -80.05125 | 7992 ft | 232 kts | 1° |
| 2026-05-04 13:14 | 26.15650 | -80.05089 | 8750 ft | 242 kts | 352° |
| 2026-05-04 13:14 | 26.17384 | -80.05280 | 9528 ft | 247 kts | 343° |
| 2026-05-04 13:14 | 26.18765 | -80.05706 | 9955 ft | 260 kts | 340° |
| 2026-05-04 13:14 | 26.20701 | -80.06323 | 10675 ft | 272 kts | 338° |
| 2026-05-04 13:15 | 26.22432 | -80.07211 | 11967 ft | 251 kts | 320° |
| 2026-05-04 13:15 | 26.23721 | -80.08581 | 12809 ft | 249 kts | 301° |
| 2026-05-04 13:15 | 26.24400 | -80.10184 | 13476 ft | 249 kts | 282° |
| 2026-05-04 13:15 | 26.24796 | -80.12038 | 14363 ft | 248 kts | 281° |
| 2026-05-04 13:16 | 26.25149 | -80.14049 | 15154 ft | 251 kts | 276° |
| 2026-05-04 13:16 | 26.25351 | -80.15978 | 15764 ft | 259 kts | 274° |
| 2026-05-04 13:16 | 26.25567 | -80.18031 | 16372 ft | 267 kts | 276° |
| 2026-05-04 13:16 | 26.25911 | -80.20200 | 17092 ft | 271 kts | 278° |
| 2026-05-04 13:17 | 26.26280 | -80.22240 | 17912 ft | 270 kts | 280° |
| 2026-05-04 13:17 | 26.26622 | -80.24242 | 18388 ft | 279 kts | 277° |
| 2026-05-04 13:17 | 26.26924 | -80.26531 | 18928 ft | 288 kts | 277° |
| 2026-05-04 13:17 | 26.27292 | -80.28874 | 18254 ft | 330 kts | 279° |
| 2026-05-04 13:18 | 26.27674 | -80.31498 | 18973 ft | 329 kts | 278° |
| 2026-05-04 13:18 | 26.28063 | -80.34225 | 19516 ft | 334 kts | 278° |
| 2026-05-04 13:18 | 26.28449 | -80.36911 | 19948 ft | 340 kts | 278° |
| 2026-05-04 13:18 | 26.28844 | -80.39700 | 20017 ft | 356 kts | 278° |
| 2026-05-04 13:19 | 26.29255 | -80.42638 | 20013 ft | 349 kts | 278° |
| 2026-05-04 13:19 | 26.29665 | -80.45491 | 20010 ft | 343 kts | 278° |
| 2026-05-04 13:19 | 26.30034 | -80.48084 | 20010 ft | 338 kts | 278° |
| 2026-05-04 13:19 | 26.30430 | -80.50956 | 20012 ft | 333 kts | 278° |
| 2026-05-04 13:20 | 26.30834 | -80.53806 | 20012 ft | 330 kts | 278° |
| 2026-05-04 13:20 | 26.31202 | -80.56396 | 20012 ft | 327 kts | 278° |
| 2026-05-04 13:20 | 26.31562 | -80.58984 | 20008 ft | 324 kts | 278° |
| 2026-05-04 13:20 | 26.31935 | -80.61610 | 20007 ft | 322 kts | 278° |
| 2026-05-04 13:21 | 26.32298 | -80.64239 | 20010 ft | 320 kts | 278° |
| 2026-05-04 13:21 | 26.32510 | -80.65762 | 20013 ft | 318 kts | 278° |
| 2026-05-04 13:21 | 26.32803 | -80.67823 | 20020 ft | 317 kts | 278° |
| 2026-05-04 13:21 | 26.33180 | -80.70555 | 20019 ft | 316 kts | 278° |
| 2026-05-04 13:22 | 26.33530 | -80.73030 | 20024 ft | 316 kts | 277° |
| 2026-05-04 13:22 | 26.33873 | -80.75487 | 20020 ft | 315 kts | 278° |
| 2026-05-04 13:22 | 26.34222 | -80.78016 | 20022 ft | 315 kts | 277° |
| 2026-05-04 13:22 | 26.34597 | -80.80709 | 20025 ft | 314 kts | 278° |
| 2026-05-04 13:23 | 26.34965 | -80.83388 | 20022 ft | 314 kts | 278° |
| 2026-05-04 13:23 | 26.35308 | -80.85842 | 20026 ft | 313 kts | 278° |
| 2026-05-04 13:23 | 26.35652 | -80.88349 | 20025 ft | 313 kts | 278° |
| 2026-05-04 13:23 | 26.36210 | -80.91026 | 20026 ft | 314 kts | 287° |
| 2026-05-04 13:24 | 26.37288 | -80.93507 | 20027 ft | 317 kts | 298° |
| 2026-05-04 13:24 | 26.38663 | -80.95503 | 20024 ft | 322 kts | 308° |
| 2026-05-04 13:24 | 26.40482 | -80.97305 | 20031 ft | 325 kts | 314° |
| 2026-05-04 13:25 | 26.44145 | -81.00992 | 20031 ft | 323 kts | 311° |
| 2026-05-04 13:25 | 26.45809 | -81.02722 | 20031 ft | 323 kts | 311° |
| 2026-05-04 13:25 | 26.47624 | -81.04622 | 20030 ft | 323 kts | 311° |
| 2026-05-04 13:25 | 26.49461 | -81.06551 | 20031 ft | 323 kts | 311° |
| 2026-05-04 13:26 | 26.51168 | -81.08347 | 20036 ft | 322 kts | 311° |
| 2026-05-04 13:26 | 26.52825 | -81.10095 | 20034 ft | 322 kts | 311° |
| 2026-05-04 13:26 | 26.54660 | -81.12026 | 20032 ft | 322 kts | 311° |
| 2026-05-04 13:26 | 26.56436 | -81.13895 | 20029 ft | 322 kts | 311° |
| 2026-05-04 13:27 | 26.58120 | -81.15675 | 20029 ft | 321 kts | 311° |
| 2026-05-04 13:27 | 26.59813 | -81.17461 | 20035 ft | 321 kts | 311° |
| 2026-05-04 13:27 | 26.61639 | -81.19385 | 20031 ft | 321 kts | 311° |
| 2026-05-04 13:27 | 26.63435 | -81.21298 | 20037 ft | 320 kts | 309° |
| 2026-05-04 13:28 | 26.64873 | -81.23209 | 20038 ft | 317 kts | 304° |
| 2026-05-04 13:28 | 26.66370 | -81.25298 | 20036 ft | 318 kts | 304° |
| 2026-05-04 13:28 | 26.67934 | -81.27473 | 20038 ft | 318 kts | 305° |
| 2026-05-04 13:28 | 26.69412 | -81.29529 | 20036 ft | 318 kts | 304° |
| 2026-05-04 13:29 | 26.70821 | -81.31483 | 20036 ft | 318 kts | 304° |
| 2026-05-04 13:29 | 26.72377 | -81.33646 | 20035 ft | 318 kts | 305° |
| 2026-05-04 13:29 | 26.73917 | -81.35787 | 20037 ft | 318 kts | 305° |
| 2026-05-04 13:29 | 26.75358 | -81.37794 | 20038 ft | 317 kts | 305° |
| 2026-05-04 13:30 | 26.76781 | -81.39771 | 20041 ft | 318 kts | 304° |
| 2026-05-04 13:30 | 26.78327 | -81.41930 | 20039 ft | 318 kts | 305° |
| 2026-05-04 13:30 | 26.79892 | -81.44109 | 20040 ft | 318 kts | 305° |
| 2026-05-04 13:30 | 26.81320 | -81.46090 | 20044 ft | 318 kts | 305° |
| 2026-05-04 13:31 | 26.82781 | -81.48138 | 20041 ft | 318 kts | 305° |
| 2026-05-04 13:31 | 26.84310 | -81.50260 | 20036 ft | 318 kts | 305° |
| 2026-05-04 13:31 | 26.85825 | -81.52380 | 20039 ft | 318 kts | 305° |
| 2026-05-04 13:31 | 26.87216 | -81.54322 | 20040 ft | 317 kts | 305° |
| 2026-05-04 13:32 | 26.88723 | -81.56427 | 20044 ft | 318 kts | 305° |
| 2026-05-04 13:32 | 26.90258 | -81.58575 | 20047 ft | 318 kts | 305° |
| 2026-05-04 13:32 | 26.91721 | -81.60616 | 20042 ft | 318 kts | 305° |
| 2026-05-04 13:32 | 26.93147 | -81.62611 | 20041 ft | 318 kts | 305° |
| 2026-05-04 13:33 | 26.94690 | -81.64773 | 20041 ft | 318 kts | 305° |
| 2026-05-04 13:33 | 26.96219 | -81.66912 | 20048 ft | 318 kts | 304° |
| 2026-05-04 13:33 | 26.97625 | -81.68886 | 20049 ft | 318 kts | 304° |
| 2026-05-04 13:33 | 26.99086 | -81.70928 | 20055 ft | 319 kts | 305° |
| 2026-05-04 13:34 | 27.00659 | -81.73138 | 20057 ft | 319 kts | 305° |
| 2026-05-04 13:34 | 27.02201 | -81.75295 | 20058 ft | 319 kts | 304° |
| 2026-05-04 13:34 | 27.03633 | -81.77313 | 20059 ft | 319 kts | 305° |
| 2026-05-04 13:34 | 27.05157 | -81.79444 | 20062 ft | 319 kts | 305° |
| 2026-05-04 13:35 | 27.06698 | -81.81613 | 20059 ft | 319 kts | 304° |
| 2026-05-04 13:35 | 27.09990 | -81.85375 | 20063 ft | 326 kts | 319° |
| 2026-05-04 13:35 | 27.10851 | -81.86056 | 20066 ft | 326 kts | 319° |
| 2026-05-04 13:36 | 27.12018 | -81.87024 | 20065 ft | 325 kts | 318° |
| 2026-05-04 13:36 | 27.13831 | -81.88541 | 20065 ft | 326 kts | 318° |
| 2026-05-04 13:36 | 27.15638 | -81.90060 | 20060 ft | 326 kts | 317° |
| 2026-05-04 13:36 | 27.17494 | -81.91634 | 20029 ft | 327 kts | 318° |
| 2026-05-04 13:37 | 27.19534 | -81.93361 | 19594 ft | 340 kts | 319° |
| 2026-05-04 13:37 | 27.21627 | -81.95132 | 19064 ft | 341 kts | 319° |
| 2026-05-04 13:37 | 27.23579 | -81.96783 | 18475 ft | 336 kts | 319° |
| 2026-05-04 13:37 | 27.24864 | -81.97868 | 18051 ft | 331 kts | 319° |
| 2026-05-04 13:38 | 27.27541 | -82.00142 | 17175 ft | 322 kts | 319° |
| 2026-05-04 13:38 | 27.29526 | -82.01823 | 16489 ft | 312 kts | 319° |
| 2026-05-04 13:38 | 27.31217 | -82.03258 | 15881 ft | 304 kts | 319° |
| 2026-05-04 13:38 | 27.33040 | -82.04807 | 15204 ft | 298 kts | 320° |
| 2026-05-04 13:39 | 27.34886 | -82.06374 | 14502 ft | 292 kts | 320° |
| 2026-05-04 13:39 | 27.36652 | -82.07879 | 13815 ft | 288 kts | 320° |
| 2026-05-04 13:39 | 27.38116 | -82.09210 | 13217 ft | 284 kts | 317° |
| 2026-05-04 13:39 | 27.39735 | -82.10716 | 12533 ft | 281 kts | 318° |
| 2026-05-04 13:40 | 27.41334 | -82.12206 | 11853 ft | 279 kts | 318° |
| 2026-05-04 13:40 | 27.42794 | -82.13559 | 11231 ft | 277 kts | 318° |
| 2026-05-04 13:40 | 27.44297 | -82.14967 | 10977 ft | 260 kts | 316° |
| 2026-05-04 13:40 | 27.45610 | -82.16400 | 10939 ft | 245 kts | 313° |
| 2026-05-04 13:41 | 27.46897 | -82.17810 | 10943 ft | 240 kts | 313° |
| 2026-05-04 13:41 | 27.48076 | -82.19100 | 10944 ft | 235 kts | 313° |
| 2026-05-04 13:41 | 27.49277 | -82.20418 | 10946 ft | 231 kts | 313° |
| 2026-05-04 13:42 | 27.51639 | -82.23002 | 10949 ft | 224 kts | 313° |
| 2026-05-04 13:42 | 27.52795 | -82.24265 | 10949 ft | 221 kts | 314° |
| 2026-05-04 13:42 | 27.53961 | -82.25542 | 10952 ft | 219 kts | 313° |
| 2026-05-04 13:42 | 27.55085 | -82.26770 | 10950 ft | 216 kts | 313° |
| 2026-05-04 13:43 | 27.56214 | -82.28015 | 10598 ft | 231 kts | 313° |
| 2026-05-04 13:43 | 27.57466 | -82.29388 | 10116 ft | 248 kts | 313° |
| 2026-05-04 13:43 | 27.58839 | -82.30896 | 9612 ft | 262 kts | 314° |
| 2026-05-04 13:43 | 27.60173 | -82.32355 | 9137 ft | 272 kts | 314° |
| 2026-05-04 13:44 | 27.61629 | -82.33955 | 8630 ft | 279 kts | 314° |
| 2026-05-04 13:44 | 27.63098 | -82.35569 | 8107 ft | 271 kts | 314° |
| 2026-05-04 13:44 | 27.64451 | -82.37051 | 7606 ft | 265 kts | 315° |
| 2026-05-04 13:44 | 27.65880 | -82.38622 | 7065 ft | 260 kts | 315° |
| 2026-05-04 13:45 | 27.67249 | -82.40125 | 6545 ft | 256 kts | 316° |
| 2026-05-04 13:45 | 27.68553 | -82.41558 | 6042 ft | 253 kts | 316° |
| 2026-05-04 13:45 | 27.69584 | -82.43201 | 5521 ft | 252 kts | 288° |
| 2026-05-04 13:45 | 27.69537 | -82.45266 | 5027 ft | 251 kts | 256° |
| 2026-05-04 13:46 | 27.69403 | -82.47342 | 4485 ft | 249 kts | 284° |
| 2026-05-04 13:46 | 27.70276 | -82.48964 | 3925 ft | 245 kts | 324° |
| 2026-05-04 13:46 | 27.71749 | -82.49918 | 3663 ft | 232 kts | 330° |
| 2026-05-04 13:46 | 27.73153 | -82.51015 | 3372 ft | 225 kts | 328° |
| 2026-05-04 13:47 | 27.74358 | -82.51994 | 3119 ft | 220 kts | 328° |
| 2026-05-04 13:47 | 27.75594 | -82.53017 | 2891 ft | 213 kts | 326° |
| 2026-05-04 13:47 | 27.76832 | -82.54123 | 2644 ft | 207 kts | 328° |
| 2026-05-04 13:47 | 27.78070 | -82.54711 | 2469 ft | 193 kts | 358° |
| 2026-05-04 13:48 | 27.79456 | -82.54660 | 1860 ft | 205 kts | 9° |
| 2026-05-04 13:48 | 27.80959 | -82.54557 | 1757 ft | 192 kts | 2° |
| 2026-05-04 13:48 | 27.82182 | -82.54782 | 1963 ft | 164 kts | 354° |
| 2026-05-04 13:48 | 27.83265 | -82.54896 | 1956 ft | 147 kts | 8° |
| 2026-05-04 13:49 | 27.84331 | -82.54777 | 1962 ft | 141 kts | 12° |
| 2026-05-04 13:49 | 27.85328 | -82.54687 | 1912 ft | 139 kts | 8° |
| 2026-05-04 13:49 | 27.86215 | -82.54684 | 1988 ft | 114 kts | 6° |
| 2026-05-04 13:49 | 27.87064 | -82.54688 | 1790 ft | 114 kts | 9° |
| 2026-05-04 13:50 | 27.87859 | -82.54655 | 1633 ft | 114 kts | 11° |
| 2026-05-04 13:50 | 27.88656 | -82.54584 | 1503 ft | 115 kts | 13° |
| 2026-05-04 13:50 | 27.89545 | -82.54457 | 1407 ft | 127 kts | 13° |
| 2026-05-04 13:50 | 27.90340 | -82.54394 | 1227 ft | 118 kts | 8° |
| 2026-05-04 13:51 | 27.91143 | -82.54391 | 1036 ft | 108 kts | 5° |
| 2026-05-04 13:51 | 27.91900 | -82.54395 | 885 ft | 103 kts | 7° |
| 2026-05-04 13:51 | 27.92728 | -82.54357 | 892 ft | 115 kts | 7° |
| 2026-05-04 13:51 | 27.93515 | -82.54327 | 705 ft | 114 kts | 7° |
| 2026-05-04 13:52 | 27.95110 | -82.54264 | 335 ft | 103 kts | 6° |
| 2026-05-04 13:52 | 27.95810 | -82.54240 | 190 ft | 100 kts | 7° |
| 2026-05-04 13:52 | 27.96520 | -82.54225 | 36 ft | 96 kts | 7° |
| 2026-05-04 13:53 | 27.97175 | -82.54195 | 8 ft | 83 kts | 0° |
| 2026-05-04 13:53 | 27.97690 | -82.54192 | 11 ft | 60 kts | 6° |
| 2026-05-04 13:53 | 27.97898 | -82.54135 | 14 ft | 20 kts | 47° |
| 2026-05-04 13:54 | 27.97730 | -82.54060 | 14 ft | 16 kts | 186° |
| 2026-05-04 13:54 | 27.97606 | -82.54074 | 12 ft | 18 kts | 180° |
| 2026-05-04 13:54 | 27.97514 | -82.53951 | 12 ft | 11 kts | 101° |
| 2026-05-04 13:55 | 27.97480 | -82.53867 | 13 ft | 11 kts | 123° |
| 2026-05-04 13:55 | 27.97392 | -82.53719 | 14 ft | 10 kts | 122° |
| 2026-05-04 13:55 | 27.97350 | -82.53633 | 14 ft | 13 kts | 112° |
| 2026-05-04 13:56 | 27.97322 | -82.53519 | 14 ft | 16 kts | 99° |
| 2026-05-04 13:56 | 27.97313 | -82.53387 | 16 ft | 17 kts | 92° |
| 2026-05-04 13:56 | 27.97304 | -82.53093 | 17 ft | 20 kts | 93° |
| 2026-05-04 13:57 | 27.97300 | -82.52924 | 18 ft | 21 kts | 91° |
| 2026-05-04 13:57 | 27.97295 | -82.52747 | 21 ft | 22 kts | 90° |
| 2026-05-04 13:58 | 27.96992 | -82.52674 | 20 ft | 17 kts | 181° |
| 2026-05-04 13:58 | 27.96936 | -82.52449 | 21 ft | 16 kts | 92° |
| 2026-05-04 13:58 | 27.96932 | -82.52316 | 21 ft | 16 kts | 91° |
| 2026-05-04 13:59 | 27.96929 | -82.52179 | 22 ft | 16 kts | 91° |
| 2026-05-04 13:59 | 27.96926 | -82.52059 | 24 ft | 15 kts | 90° |
| 2026-05-04 13:59 | 27.96789 | -82.51994 | 23 ft | 13 kts | 238° |
| 2026-05-04 14:00 | 27.96785 | -82.52066 | 22 ft | 0 kts | 273° |